Terminal Aerodrome Forecast
Issued by NWS

Home | Current Version | Previous Version | Graphics & Text | Print | Product List | Glossary On
Versions: 1 2 3 4 5 6 7 8 9 10 11 12 13 14 15 16 17 18 19 20 21
000
FTUS43 KGRB 241700
TAFAUW
TAF
KAUW 241723Z 2418/2518 35008KT P6SM SCT012 OVC020
      TEMPO 2418/2420 4SM -SN BR BKN010
     FM242000 34008KT P6SM SCT015 OVC025
     FM250200 31006KT P6SM BKN015 OVC025
     FM250600 27008KT P6SM OVC015
     FM251400 23007KT P6SM OVC022=

USA.gov is the U.S. government's official web portal to all federal, state and local government web resources and services.